sensor_id;sensor_type;location;lat;lon;timestamp;P1;durP1;ratioP1;P2;durP2;ratioP2
24517;SDS011;12678;51.336;12.406;2024-01-06T00:00:29;7.10;;;2.90;;
24517;SDS011;12678;51.336;12.406;2024-01-06T00:02:55;7.15;;;2.97;;
24517;SDS011;12678;51.336;12.406;2024-01-06T00:05:20;5.72;;;3.00;;
24517;SDS011;12678;51.336;12.406;2024-01-06T00:07:46;5.85;;;2.88;;
24517;SDS011;12678;51.336;12.406;2024-01-06T00:10:12;10.75;;;3.22;;
24517;SDS011;12678;51.336;12.406;2024-01-06T00:12:37;6.75;;;3.80;;
24517;SDS011;12678;51.336;12.406;2024-01-06T00:15:03;6.60;;;3.17;;
24517;SDS011;12678;51.336;12.406;2024-01-06T00:17:29;11.30;;;3.65;;
24517;SDS011;12678;51.336;12.406;2024-01-06T00:19:55;9.98;;;3.20;;
24517;SDS011;12678;51.336;12.406;2024-01-06T00:22:20;8.35;;;2.67;;
24517;SDS011;12678;51.336;12.406;2024-01-06T00:24:46;8.93;;;3.45;;
24517;SDS011;12678;51.336;12.406;2024-01-06T00:27:11;6.80;;;2.97;;
24517;SDS011;12678;51.336;12.406;2024-01-06T00:29:38;6.78;;;3.22;;
24517;SDS011;12678;51.336;12.406;2024-01-06T00:32:04;9.38;;;3.38;;
24517;SDS011;12678;51.336;12.406;2024-01-06T00:34:30;10.70;;;3.30;;
24517;SDS011;12678;51.336;12.406;2024-01-06T00:36:55;11.30;;;3.60;;
24517;SDS011;12678;51.336;12.406;2024-01-06T00:39:21;11.00;;;3.92;;
24517;SDS011;12678;51.336;12.406;2024-01-06T00:41:49;6.15;;;2.85;;
24517;SDS011;12678;51.336;12.406;2024-01-06T00:44:15;8.80;;;3.70;;
24517;SDS011;12678;51.336;12.406;2024-01-06T00:46:41;7.80;;;3.13;;
24517;SDS011;12678;51.336;12.406;2024-01-06T00:49:06;6.35;;;3.42;;
24517;SDS011;12678;51.336;12.406;2024-01-06T00:51:32;5.72;;;3.00;;
24517;SDS011;12678;51.336;12.406;2024-01-06T00:53:57;5.70;;;2.88;;
24517;SDS011;12678;51.336;12.406;2024-01-06T00:56:23;11.52;;;3.60;;
24517;SDS011;12678;51.336;12.406;2024-01-06T00:58:48;6.43;;;3.20;;
24517;SDS011;12678;51.336;12.406;2024-01-06T01:01:14;11.95;;;3.72;;
24517;SDS011;12678;51.336;12.406;2024-01-06T01:03:40;12.27;;;3.33;;
24517;SDS011;12678;51.336;12.406;2024-01-06T01:06:06;13.50;;;3.13;;
24517;SDS011;12678;51.336;12.406;2024-01-06T01:08:33;6.30;;;3.33;;
24517;SDS011;12678;51.336;12.406;2024-01-06T01:10:58;5.72;;;2.85;;
24517;SDS011;12678;51.336;12.406;2024-01-06T01:13:24;7.38;;;4.18;;
24517;SDS011;12678;51.336;12.406;2024-01-06T01:15:49;9.57;;;3.33;;
24517;SDS011;12678;51.336;12.406;2024-01-06T01:18:15;9.85;;;3.50;;
24517;SDS011;12678;51.336;12.406;2024-01-06T01:20:40;12.88;;;3.30;;
24517;SDS011;12678;51.336;12.406;2024-01-06T01:23:09;10.15;;;3.28;;
24517;SDS011;12678;51.336;12.406;2024-01-06T01:25:34;7.82;;;3.25;;
24517;SDS011;12678;51.336;12.406;2024-01-06T01:28:01;8.95;;;3.25;;
24517;SDS011;12678;51.336;12.406;2024-01-06T01:30:27;7.95;;;3.17;;
24517;SDS011;12678;51.336;12.406;2024-01-06T01:32:52;13.25;;;3.90;;
24517;SDS011;12678;51.336;12.406;2024-01-06T01:35:18;14.05;;;3.22;;
24517;SDS011;12678;51.336;12.406;2024-01-06T01:37:44;8.68;;;3.70;;
24517;SDS011;12678;51.336;12.406;2024-01-06T01:40:09;11.63;;;4.53;;
24517;SDS011;12678;51.336;12.406;2024-01-06T01:42:35;11.35;;;3.72;;
24517;SDS011;12678;51.336;12.406;2024-01-06T01:45:01;6.80;;;3.67;;
24517;SDS011;12678;51.336;12.406;2024-01-06T01:47:26;5.28;;;3.10;;
24517;SDS011;12678;51.336;12.406;2024-01-06T01:49:52;7.88;;;3.38;;
24517;SDS011;12678;51.336;12.406;2024-01-06T01:52:19;9.40;;;3.70;;
24517;SDS011;12678;51.336;12.406;2024-01-06T01:54:45;7.10;;;3.58;;
24517;SDS011;12678;51.336;12.406;2024-01-06T01:57:12;10.07;;;3.00;;
24517;SDS011;12678;51.336;12.406;2024-01-06T01:59:40;12.88;;;3.60;;
24517;SDS011;12678;51.336;12.406;2024-01-06T02:02:06;6.82;;;3.15;;
24517;SDS011;12678;51.336;12.406;2024-01-06T02:04:33;9.60;;;3.85;;
24517;SDS011;12678;51.336;12.406;2024-01-06T02:07:00;7.72;;;3.28;;
24517;SDS011;12678;51.336;12.406;2024-01-06T02:09:26;8.32;;;3.83;;
24517;SDS011;12678;51.336;12.406;2024-01-06T02:11:56;14.40;;;3.80;;
24517;SDS011;12678;51.336;12.406;2024-01-06T02:14:22;4.53;;;2.83;;
24517;SDS011;12678;51.336;12.406;2024-01-06T02:16:47;8.40;;;3.53;;
24517;SDS011;12678;51.336;12.406;2024-01-06T02:19:13;8.07;;;3.42;;
24517;SDS011;12678;51.336;12.406;2024-01-06T02:21:41;7.22;;;3.30;;
24517;SDS011;12678;51.336;12.406;2024-01-06T02:24:08;9.35;;;3.17;;
24517;SDS011;12678;51.336;12.406;2024-01-06T02:26:34;8.20;;;3.25;;
24517;SDS011;12678;51.336;12.406;2024-01-06T02:29:00;7.05;;;3.55;;
24517;SDS011;12678;51.336;12.406;2024-01-06T02:31:26;7.75;;;3.17;;
24517;SDS011;12678;51.336;12.406;2024-01-06T02:33:52;13.10;;;3.78;;
24517;SDS011;12678;51.336;12.406;2024-01-06T02:36:18;12.48;;;3.78;;
24517;SDS011;12678;51.336;12.406;2024-01-06T02:38:43;8.18;;;3.33;;
24517;SDS011;12678;51.336;12.406;2024-01-06T02:41:09;6.95;;;3.15;;
24517;SDS011;12678;51.336;12.406;2024-01-06T02:43:34;8.05;;;3.20;;
24517;SDS011;12678;51.336;12.406;2024-01-06T02:46:00;8.20;;;3.58;;
24517;SDS011;12678;51.336;12.406;2024-01-06T02:48:25;5.35;;;3.20;;
24517;SDS011;12678;51.336;12.406;2024-01-06T02:50:51;9.93;;;3.20;;
24517;SDS011;12678;51.336;12.406;2024-01-06T02:53:16;9.45;;;3.25;;
24517;SDS011;12678;51.336;12.406;2024-01-06T02:55:42;8.85;;;3.80;;
24517;SDS011;12678;51.336;12.406;2024-01-06T02:58:07;9.23;;;3.28;;
24517;SDS011;12678;51.336;12.406;2024-01-06T03:00:33;4.30;;;3.05;;
24517;SDS011;12678;51.336;12.406;2024-01-06T03:02:58;10.02;;;3.88;;
24517;SDS011;12678;51.336;12.406;2024-01-06T03:05:24;7.65;;;3.17;;
24517;SDS011;12678;51.336;12.406;2024-01-06T03:07:50;5.88;;;3.38;;
24517;SDS011;12678;51.336;12.406;2024-01-06T03:10:15;6.10;;;3.08;;
24517;SDS011;12678;51.336;12.406;2024-01-06T03:12:41;16.20;;;3.50;;
24517;SDS011;12678;51.336;12.406;2024-01-06T03:15:06;9.93;;;3.58;;
24517;SDS011;12678;51.336;12.406;2024-01-06T03:17:33;12.98;;;3.60;;
24517;SDS011;12678;51.336;12.406;2024-01-06T03:19:58;12.25;;;3.42;;
24517;SDS011;12678;51.336;12.406;2024-01-06T03:22:24;7.15;;;3.00;;
24517;SDS011;12678;51.336;12.406;2024-01-06T03:24:49;7.50;;;3.63;;
24517;SDS011;12678;51.336;12.406;2024-01-06T03:27:15;7.38;;;3.42;;
24517;SDS011;12678;51.336;12.406;2024-01-06T03:29:40;9.90;;;3.20;;
24517;SDS011;12678;51.336;12.406;2024-01-06T03:32:06;5.72;;;3.33;;
24517;SDS011;12678;51.336;12.406;2024-01-06T03:34:31;10.95;;;3.75;;
24517;SDS011;12678;51.336;12.406;2024-01-06T03:36:57;11.80;;;3.83;;
24517;SDS011;12678;51.336;12.406;2024-01-06T03:39:22;35.15;;;18.90;;
24517;SDS011;12678;51.336;12.406;2024-01-06T03:41:48;48.58;;;23.15;;
24517;SDS011;12678;51.336;12.406;2024-01-06T03:44:14;29.00;;;14.52;;
24517;SDS011;12678;51.336;12.406;2024-01-06T03:46:39;49.22;;;17.23;;
24517;SDS011;12678;51.336;12.406;2024-01-06T03:49:05;36.45;;;13.73;;
24517;SDS011;12678;51.336;12.406;2024-01-06T03:51:30;75.63;;;24.40;;
24517;SDS011;12678;51.336;12.406;2024-01-06T03:53:56;83.90;;;33.22;;
24517;SDS011;12678;51.336;12.406;2024-01-06T03:56:21;57.25;;;21.02;;
24517;SDS011;12678;51.336;12.406;2024-01-06T03:58:47;22.73;;;9.82;;
24517;SDS011;12678;51.336;12.406;2024-01-06T04:01:13;6.95;;;4.07;;
24517;SDS011;12678;51.336;12.406;2024-01-06T04:03:38;21.88;;;9.77;;
24517;SDS011;12678;51.336;12.406;2024-01-06T04:06:07;9.60;;;3.90;;
24517;SDS011;12678;51.336;12.406;2024-01-06T04:08:32;15.05;;;7.10;;
24517;SDS011;12678;51.336;12.406;2024-01-06T04:10:58;22.20;;;9.43;;
24517;SDS011;12678;51.336;12.406;2024-01-06T04:13:23;25.27;;;10.15;;
24517;SDS011;12678;51.336;12.406;2024-01-06T04:15:50;20.65;;;10.05;;
24517;SDS011;12678;51.336;12.406;2024-01-06T04:18:16;26.05;;;10.45;;
24517;SDS011;12678;51.336;12.406;2024-01-06T04:20:41;32.20;;;14.05;;
24517;SDS011;12678;51.336;12.406;2024-01-06T04:23:07;43.30;;;20.40;;
24517;SDS011;12678;51.336;12.406;2024-01-06T04:25:32;46.53;;;17.75;;
24517;SDS011;12678;51.336;12.406;2024-01-06T04:27:58;47.72;;;21.35;;
24517;SDS011;12678;51.336;12.406;2024-01-06T04:30:23;88.63;;;36.20;;
24517;SDS011;12678;51.336;12.406;2024-01-06T04:32:50;15.50;;;8.23;;
24517;SDS011;12678;51.336;12.406;2024-01-06T04:35:16;24.35;;;8.80;;
24517;SDS011;12678;51.336;12.406;2024-01-06T04:37:43;9.93;;;6.18;;
24517;SDS011;12678;51.336;12.406;2024-01-06T04:40:08;16.52;;;6.45;;
24517;SDS011;12678;51.336;12.406;2024-01-06T04:42:35;17.90;;;8.02;;
24517;SDS011;12678;51.336;12.406;2024-01-06T04:45:00;11.70;;;6.28;;
24517;SDS011;12678;51.336;12.406;2024-01-06T04:47:26;13.07;;;5.47;;
24517;SDS011;12678;51.336;12.406;2024-01-06T04:49:52;13.95;;;6.38;;
24517;SDS011;12678;51.336;12.406;2024-01-06T04:52:18;10.88;;;5.40;;
24517;SDS011;12678;51.336;12.406;2024-01-06T04:54:43;13.52;;;6.30;;
24517;SDS011;12678;51.336;12.406;2024-01-06T04:57:09;29.70;;;12.40;;
24517;SDS011;12678;51.336;12.406;2024-01-06T04:59:35;16.00;;;7.22;;
24517;SDS011;12678;51.336;12.406;2024-01-06T05:02:00;14.27;;;7.85;;
24517;SDS011;12678;51.336;12.406;2024-01-06T05:04:26;22.92;;;8.80;;
24517;SDS011;12678;51.336;12.406;2024-01-06T05:06:52;14.80;;;7.97;;
24517;SDS011;12678;51.336;12.406;2024-01-06T05:09:19;9.30;;;5.53;;
24517;SDS011;12678;51.336;12.406;2024-01-06T05:11:44;9.63;;;5.55;;
24517;SDS011;12678;51.336;12.406;2024-01-06T05:14:10;12.50;;;4.00;;
24517;SDS011;12678;51.336;12.406;2024-01-06T05:16:36;9.23;;;4.70;;
24517;SDS011;12678;51.336;12.406;2024-01-06T05:19:01;12.00;;;4.45;;
24517;SDS011;12678;51.336;12.406;2024-01-06T05:21:27;7.13;;;3.85;;
24517;SDS011;12678;51.336;12.406;2024-01-06T05:23:53;16.33;;;5.35;;
24517;SDS011;12678;51.336;12.406;2024-01-06T05:26:19;6.72;;;3.40;;
24517;SDS011;12678;51.336;12.406;2024-01-06T05:28:44;9.23;;;4.00;;
24517;SDS011;12678;51.336;12.406;2024-01-06T05:31:10;8.10;;;3.90;;
24517;SDS011;12678;51.336;12.406;2024-01-06T05:33:35;7.05;;;4.07;;
24517;SDS011;12678;51.336;12.406;2024-01-06T05:36:01;7.93;;;3.90;;
24517;SDS011;12678;51.336;12.406;2024-01-06T05:38:27;8.65;;;4.28;;
24517;SDS011;12678;51.336;12.406;2024-01-06T05:40:52;8.35;;;3.63;;
24517;SDS011;12678;51.336;12.406;2024-01-06T05:43:18;8.18;;;4.13;;
24517;SDS011;12678;51.336;12.406;2024-01-06T05:45:43;7.65;;;4.10;;
24517;SDS011;12678;51.336;12.406;2024-01-06T05:48:10;8.65;;;3.88;;
24517;SDS011;12678;51.336;12.406;2024-01-06T05:50:36;7.13;;;4.40;;
24517;SDS011;12678;51.336;12.406;2024-01-06T05:53:03;8.73;;;4.63;;
24517;SDS011;12678;51.336;12.406;2024-01-06T05:55:29;8.80;;;4.40;;
24517;SDS011;12678;51.336;12.406;2024-01-06T05:57:54;5.55;;;3.95;;
24517;SDS011;12678;51.336;12.406;2024-01-06T06:00:20;10.90;;;4.03;;
24517;SDS011;12678;51.336;12.406;2024-01-06T06:02:46;5.75;;;3.72;;
24517;SDS011;12678;51.336;12.406;2024-01-06T06:05:11;13.13;;;4.45;;
24517;SDS011;12678;51.336;12.406;2024-01-06T06:07:38;13.48;;;4.55;;
24517;SDS011;12678;51.336;12.406;2024-01-06T06:10:07;8.65;;;4.57;;
24517;SDS011;12678;51.336;12.406;2024-01-06T06:12:34;8.52;;;4.40;;
24517;SDS011;12678;51.336;12.406;2024-01-06T06:15:01;9.40;;;3.80;;
24517;SDS011;12678;51.336;12.406;2024-01-06T06:17:29;8.57;;;3.60;;
24517;SDS011;12678;51.336;12.406;2024-01-06T06:19:55;13.63;;;4.30;;
24517;SDS011;12678;51.336;12.406;2024-01-06T06:22:22;17.33;;;4.43;;
24517;SDS011;12678;51.336;12.406;2024-01-06T06:24:48;7.38;;;4.05;;
24517;SDS011;12678;51.336;12.406;2024-01-06T06:27:13;13.25;;;4.70;;
24517;SDS011;12678;51.336;12.406;2024-01-06T06:29:39;9.05;;;4.88;;
24517;SDS011;12678;51.336;12.406;2024-01-06T06:32:04;6.63;;;3.90;;
24517;SDS011;12678;51.336;12.406;2024-01-06T06:34:30;7.45;;;4.55;;
24517;SDS011;12678;51.336;12.406;2024-01-06T06:36:56;13.10;;;4.65;;
24517;SDS011;12678;51.336;12.406;2024-01-06T06:39:21;10.77;;;4.28;;
24517;SDS011;12678;51.336;12.406;2024-01-06T06:41:47;7.25;;;4.07;;
24517;SDS011;12678;51.336;12.406;2024-01-06T06:44:12;11.13;;;4.25;;
24517;SDS011;12678;51.336;12.406;2024-01-06T06:46:38;15.38;;;4.72;;
24517;SDS011;12678;51.336;12.406;2024-01-06T06:49:03;8.50;;;4.40;;
24517;SDS011;12678;51.336;12.406;2024-01-06T06:51:29;10.15;;;4.28;;
24517;SDS011;12678;51.336;12.406;2024-01-06T06:53:55;9.18;;;4.38;;
24517;SDS011;12678;51.336;12.406;2024-01-06T06:56:23;9.18;;;4.57;;
24517;SDS011;12678;51.336;12.406;2024-01-06T06:58:49;13.90;;;5.30;;
24517;SDS011;12678;51.336;12.406;2024-01-06T07:01:14;11.15;;;5.05;;
24517;SDS011;12678;51.336;12.406;2024-01-06T07:03:41;10.02;;;5.07;;
24517;SDS011;12678;51.336;12.406;2024-01-06T07:06:06;8.80;;;4.70;;
24517;SDS011;12678;51.336;12.406;2024-01-06T07:08:32;9.85;;;4.57;;
24517;SDS011;12678;51.336;12.406;2024-01-06T07:10:57;12.70;;;4.50;;
24517;SDS011;12678;51.336;12.406;2024-01-06T07:13:23;13.10;;;5.05;;
24517;SDS011;12678;51.336;12.406;2024-01-06T07:15:48;7.82;;;4.65;;
24517;SDS011;12678;51.336;12.406;2024-01-06T07:18:14;8.63;;;4.78;;
24517;SDS011;12678;51.336;12.406;2024-01-06T07:20:39;13.10;;;5.28;;
24517;SDS011;12678;51.336;12.406;2024-01-06T07:23:06;9.90;;;5.00;;
24517;SDS011;12678;51.336;12.406;2024-01-06T07:25:32;11.20;;;5.20;;
24517;SDS011;12678;51.336;12.406;2024-01-06T07:27:57;13.80;;;5.28;;
24517;SDS011;12678;51.336;12.406;2024-01-06T07:30:23;10.10;;;5.25;;
24517;SDS011;12678;51.336;12.406;2024-01-06T07:32:49;10.93;;;5.28;;
24517;SDS011;12678;51.336;12.406;2024-01-06T07:35:16;8.73;;;5.18;;
24517;SDS011;12678;51.336;12.406;2024-01-06T07:37:42;14.63;;;5.18;;
24517;SDS011;12678;51.336;12.406;2024-01-06T07:40:08;17.52;;;4.90;;
24517;SDS011;12678;51.336;12.406;2024-01-06T07:42:34;12.35;;;5.68;;
24517;SDS011;12678;51.336;12.406;2024-01-06T07:45:00;9.40;;;5.47;;
24517;SDS011;12678;51.336;12.406;2024-01-06T07:47:25;15.02;;;6.78;;
24517;SDS011;12678;51.336;12.406;2024-01-06T07:49:51;12.80;;;5.70;;
24517;SDS011;12678;51.336;12.406;2024-01-06T07:52:18;11.18;;;6.45;;
24517;SDS011;12678;51.336;12.406;2024-01-06T07:54:43;10.93;;;6.53;;
24517;SDS011;12678;51.336;12.406;2024-01-06T07:57:09;18.52;;;6.88;;
24517;SDS011;12678;51.336;12.406;2024-01-06T07:59:36;15.20;;;7.38;;
24517;SDS011;12678;51.336;12.406;2024-01-06T08:02:01;12.98;;;5.95;;
24517;SDS011;12678;51.336;12.406;2024-01-06T08:04:27;13.07;;;6.00;;
24517;SDS011;12678;51.336;12.406;2024-01-06T08:06:52;13.32;;;6.30;;
24517;SDS011;12678;51.336;12.406;2024-01-06T08:09:18;12.30;;;6.05;;
24517;SDS011;12678;51.336;12.406;2024-01-06T08:11:43;17.27;;;6.43;;
24517;SDS011;12678;51.336;12.406;2024-01-06T08:14:12;16.15;;;5.30;;
24517;SDS011;12678;51.336;12.406;2024-01-06T08:16:39;8.48;;;5.13;;
24517;SDS011;12678;51.336;12.406;2024-01-06T08:19:05;12.73;;;5.70;;
24517;SDS011;12678;51.336;12.406;2024-01-06T08:21:30;11.50;;;4.65;;
24517;SDS011;12678;51.336;12.406;2024-01-06T08:23:56;15.57;;;5.88;;
24517;SDS011;12678;51.336;12.406;2024-01-06T08:26:21;10.65;;;4.63;;
24517;SDS011;12678;51.336;12.406;2024-01-06T08:28:47;10.18;;;5.20;;
24517;SDS011;12678;51.336;12.406;2024-01-06T08:31:12;9.82;;;4.88;;
24517;SDS011;12678;51.336;12.406;2024-01-06T08:33:38;9.68;;;5.13;;
24517;SDS011;12678;51.336;12.406;2024-01-06T08:36:03;8.25;;;4.03;;
24517;SDS011;12678;51.336;12.406;2024-01-06T08:38:30;11.35;;;4.80;;
24517;SDS011;12678;51.336;12.406;2024-01-06T08:40:55;10.50;;;5.13;;
24517;SDS011;12678;51.336;12.406;2024-01-06T08:43:21;9.95;;;4.45;;
24517;SDS011;12678;51.336;12.406;2024-01-06T08:45:46;14.07;;;5.00;;
24517;SDS011;12678;51.336;12.406;2024-01-06T08:48:13;11.85;;;4.70;;
24517;SDS011;12678;51.336;12.406;2024-01-06T08:50:40;8.65;;;5.05;;
24517;SDS011;12678;51.336;12.406;2024-01-06T08:53:05;9.93;;;5.10;;
24517;SDS011;12678;51.336;12.406;2024-01-06T08:55:31;9.30;;;4.45;;
24517;SDS011;12678;51.336;12.406;2024-01-06T08:57:56;12.70;;;5.40;;
24517;SDS011;12678;51.336;12.406;2024-01-06T09:00:22;13.63;;;4.80;;
24517;SDS011;12678;51.336;12.406;2024-01-06T09:02:47;11.00;;;4.35;;
24517;SDS011;12678;51.336;12.406;2024-01-06T09:05:14;7.85;;;4.30;;
24517;SDS011;12678;51.336;12.406;2024-01-06T09:07:39;8.73;;;4.45;;
24517;SDS011;12678;51.336;12.406;2024-01-06T09:10:05;11.63;;;5.03;;
24517;SDS011;12678;51.336;12.406;2024-01-06T09:12:31;12.80;;;5.20;;
24517;SDS011;12678;51.336;12.406;2024-01-06T09:14:56;15.23;;;6.00;;
24517;SDS011;12678;51.336;12.406;2024-01-06T09:17:22;6.78;;;4.50;;
24517;SDS011;12678;51.336;12.406;2024-01-06T09:19:48;24.30;;;6.57;;
24517;SDS011;12678;51.336;12.406;2024-01-06T09:22:13;22.15;;;7.30;;
24517;SDS011;12678;51.336;12.406;2024-01-06T09:24:40;16.65;;;5.97;;
24517;SDS011;12678;51.336;12.406;2024-01-06T09:27:05;8.90;;;5.20;;
24517;SDS011;12678;51.336;12.406;2024-01-06T09:29:31;13.02;;;6.70;;
24517;SDS011;12678;51.336;12.406;2024-01-06T09:31:56;9.95;;;6.32;;
24517;SDS011;12678;51.336;12.406;2024-01-06T09:34:22;13.15;;;6.97;;
24517;SDS011;12678;51.336;12.406;2024-01-06T09:36:47;19.08;;;7.22;;
24517;SDS011;12678;51.336;12.406;2024-01-06T09:39:13;16.67;;;7.30;;
24517;SDS011;12678;51.336;12.406;2024-01-06T09:41:38;15.13;;;6.43;;
24517;SDS011;12678;51.336;12.406;2024-01-06T09:44:04;18.13;;;7.32;;
24517;SDS011;12678;51.336;12.406;2024-01-06T09:46:30;12.25;;;6.40;;
24517;SDS011;12678;51.336;12.406;2024-01-06T09:48:56;16.83;;;7.32;;
24517;SDS011;12678;51.336;12.406;2024-01-06T09:51:23;15.13;;;7.95;;
24517;SDS011;12678;51.336;12.406;2024-01-06T09:53:53;15.30;;;7.43;;
24517;SDS011;12678;51.336;12.406;2024-01-06T09:56:26;16.27;;;8.00;;
24517;SDS011;12678;51.336;12.406;2024-01-06T09:58:53;22.00;;;8.18;;
24517;SDS011;12678;51.336;12.406;2024-01-06T10:01:18;20.67;;;7.53;;
24517;SDS011;12678;51.336;12.406;2024-01-06T10:03:44;19.95;;;8.25;;
24517;SDS011;12678;51.336;12.406;2024-01-06T10:06:12;17.20;;;7.65;;
24517;SDS011;12678;51.336;12.406;2024-01-06T10:08:39;21.70;;;8.65;;
24517;SDS011;12678;51.336;12.406;2024-01-06T10:11:07;13.73;;;7.70;;
24517;SDS011;12678;51.336;12.406;2024-01-06T10:13:36;15.75;;;7.30;;
24517;SDS011;12678;51.336;12.406;2024-01-06T10:16:05;15.82;;;6.85;;
24517;SDS011;12678;51.336;12.406;2024-01-06T10:18:31;17.33;;;6.60;;
24517;SDS011;12678;51.336;12.406;2024-01-06T10:20:57;12.98;;;6.88;;
24517;SDS011;12678;51.336;12.406;2024-01-06T10:23:23;11.73;;;7.22;;
24517;SDS011;12678;51.336;12.406;2024-01-06T10:25:52;12.77;;;6.93;;
24517;SDS011;12678;51.336;12.406;2024-01-06T10:28:21;21.63;;;7.32;;
24517;SDS011;12678;51.336;12.406;2024-01-06T10:30:51;12.20;;;6.20;;
24517;SDS011;12678;51.336;12.406;2024-01-06T10:33:18;12.68;;;6.57;;
24517;SDS011;12678;51.336;12.406;2024-01-06T10:35:48;10.77;;;6.15;;
24517;SDS011;12678;51.336;12.406;2024-01-06T10:38:14;13.05;;;6.65;;
24517;SDS011;12678;51.336;12.406;2024-01-06T10:41:02;9.88;;;6.40;;
24517;SDS011;12678;51.336;12.406;2024-01-06T10:43:32;17.67;;;6.30;;
24517;SDS011;12678;51.336;12.406;2024-01-06T10:46:08;16.33;;;6.75;;
24517;SDS011;12678;51.336;12.406;2024-01-06T10:48:39;14.63;;;6.75;;
24517;SDS011;12678;51.336;12.406;2024-01-06T10:51:08;11.48;;;6.68;;
24517;SDS011;12678;51.336;12.406;2024-01-06T10:53:34;13.73;;;6.88;;
24517;SDS011;12678;51.336;12.406;2024-01-06T10:56:05;14.65;;;7.20;;
24517;SDS011;12678;51.336;12.406;2024-01-06T10:58:34;12.82;;;6.32;;
24517;SDS011;12678;51.336;12.406;2024-01-06T11:01:10;11.20;;;6.35;;
24517;SDS011;12678;51.336;12.406;2024-01-06T11:03:37;12.43;;;6.13;;
24517;SDS011;12678;51.336;12.406;2024-01-06T11:06:06;20.95;;;7.68;;
24517;SDS011;12678;51.336;12.406;2024-01-06T11:08:36;15.27;;;6.60;;
24517;SDS011;12678;51.336;12.406;2024-01-06T11:11:14;17.98;;;6.82;;
24517;SDS011;12678;51.336;12.406;2024-01-06T11:13:43;18.10;;;5.57;;
24517;SDS011;12678;51.336;12.406;2024-01-06T11:16:10;17.05;;;7.00;;
24517;SDS011;12678;51.336;12.406;2024-01-06T11:18:39;12.15;;;6.82;;
24517;SDS011;12678;51.336;12.406;2024-01-06T11:23:42;23.92;;;8.27;;
24517;SDS011;12678;51.336;12.406;2024-01-06T11:26:09;22.33;;;10.07;;
24517;SDS011;12678;51.336;12.406;2024-01-06T11:28:47;18.13;;;7.63;;
24517;SDS011;12678;51.336;12.406;2024-01-06T11:31:15;18.67;;;8.68;;
24517;SDS011;12678;51.336;12.406;2024-01-06T11:33:41;27.27;;;7.65;;
24517;SDS011;12678;51.336;12.406;2024-01-06T11:36:14;16.75;;;7.40;;
24517;SDS011;12678;51.336;12.406;2024-01-06T11:38:40;19.00;;;7.90;;
24517;SDS011;12678;51.336;12.406;2024-01-06T11:41:07;17.42;;;7.88;;
24517;SDS011;12678;51.336;12.406;2024-01-06T11:43:34;18.48;;;8.70;;
24517;SDS011;12678;51.336;12.406;2024-01-06T11:46:01;16.13;;;7.40;;
24517;SDS011;12678;51.336;12.406;2024-01-06T11:48:29;17.40;;;7.30;;
24517;SDS011;12678;51.336;12.406;2024-01-06T11:50:56;11.25;;;6.38;;
24517;SDS011;12678;51.336;12.406;2024-01-06T11:53:23;22.92;;;7.95;;
24517;SDS011;12678;51.336;12.406;2024-01-06T11:55:51;14.48;;;7.45;;
24517;SDS011;12678;51.336;12.406;2024-01-06T11:58:17;15.70;;;8.30;;
24517;SDS011;12678;51.336;12.406;2024-01-06T12:00:42;15.05;;;8.15;;
24517;SDS011;12678;51.336;12.406;2024-01-06T12:03:09;14.20;;;6.95;;
24517;SDS011;12678;51.336;12.406;2024-01-06T12:05:35;17.13;;;8.30;;
24517;SDS011;12678;51.336;12.406;2024-01-06T12:08:01;20.50;;;8.20;;
24517;SDS011;12678;51.336;12.406;2024-01-06T12:10:32;18.42;;;8.95;;
24517;SDS011;12678;51.336;12.406;2024-01-06T12:12:59;14.73;;;7.32;;
24517;SDS011;12678;51.336;12.406;2024-01-06T12:15:33;15.65;;;7.63;;
24517;SDS011;12678;51.336;12.406;2024-01-06T12:18:01;16.35;;;8.25;;
24517;SDS011;12678;51.336;12.406;2024-01-06T12:20:28;13.57;;;8.40;;
24517;SDS011;12678;51.336;12.406;2024-01-06T12:22:54;15.35;;;7.88;;
24517;SDS011;12678;51.336;12.406;2024-01-06T12:25:21;18.33;;;8.63;;
24517;SDS011;12678;51.336;12.406;2024-01-06T12:27:47;15.85;;;8.45;;
24517;SDS011;12678;51.336;12.406;2024-01-06T12:30:14;17.45;;;8.48;;
24517;SDS011;12678;51.336;12.406;2024-01-06T12:32:44;16.60;;;8.25;;
24517;SDS011;12678;51.336;12.406;2024-01-06T12:35:11;14.70;;;8.38;;
24517;SDS011;12678;51.336;12.406;2024-01-06T12:37:41;18.98;;;8.88;;
24517;SDS011;12678;51.336;12.406;2024-01-06T12:40:14;17.88;;;9.05;;
24517;SDS011;12678;51.336;12.406;2024-01-06T12:42:42;17.02;;;7.95;;
24517;SDS011;12678;51.336;12.406;2024-01-06T12:45:08;25.05;;;9.18;;
24517;SDS011;12678;51.336;12.406;2024-01-06T12:47:35;21.52;;;9.75;;
24517;SDS011;12678;51.336;12.406;2024-01-06T12:50:01;20.50;;;9.52;;
24517;SDS011;12678;51.336;12.406;2024-01-06T12:52:29;23.80;;;10.77;;
24517;SDS011;12678;51.336;12.406;2024-01-06T12:54:55;26.10;;;10.13;;
24517;SDS011;12678;51.336;12.406;2024-01-06T12:57:20;24.50;;;11.20;;
24517;SDS011;12678;51.336;12.406;2024-01-06T12:59:46;27.63;;;11.10;;
24517;SDS011;12678;51.336;12.406;2024-01-06T13:02:11;23.73;;;11.52;;
24517;SDS011;12678;51.336;12.406;2024-01-06T13:04:37;26.63;;;11.77;;
24517;SDS011;12678;51.336;12.406;2024-01-06T13:07:03;29.42;;;11.35;;
24517;SDS011;12678;51.336;12.406;2024-01-06T13:09:28;33.78;;;12.48;;
24517;SDS011;12678;51.336;12.406;2024-01-06T13:11:54;28.88;;;12.60;;
24517;SDS011;12678;51.336;12.406;2024-01-06T13:14:25;33.33;;;12.80;;
24517;SDS011;12678;51.336;12.406;2024-01-06T13:16:51;30.48;;;12.20;;
24517;SDS011;12678;51.336;12.406;2024-01-06T13:19:17;31.13;;;12.05;;
24517;SDS011;12678;51.336;12.406;2024-01-06T13:21:43;34.83;;;13.77;;
24517;SDS011;12678;51.336;12.406;2024-01-06T13:24:09;39.38;;;13.40;;
24517;SDS011;12678;51.336;12.406;2024-01-06T13:26:35;30.80;;;12.32;;
24517;SDS011;12678;51.336;12.406;2024-01-06T13:29:00;32.15;;;13.70;;
24517;SDS011;12678;51.336;12.406;2024-01-06T13:31:27;37.03;;;15.15;;
24517;SDS011;12678;51.336;12.406;2024-01-06T13:33:53;40.25;;;15.45;;
24517;SDS011;12678;51.336;12.406;2024-01-06T13:36:20;40.70;;;15.10;;
24517;SDS011;12678;51.336;12.406;2024-01-06T13:38:46;41.38;;;15.73;;
24517;SDS011;12678;51.336;12.406;2024-01-06T13:41:13;37.80;;;14.95;;
24517;SDS011;12678;51.336;12.406;2024-01-06T13:43:39;55.10;;;16.92;;
24517;SDS011;12678;51.336;12.406;2024-01-06T13:46:04;42.40;;;15.07;;
24517;SDS011;12678;51.336;12.406;2024-01-06T13:48:30;42.58;;;15.48;;
24517;SDS011;12678;51.336;12.406;2024-01-06T13:50:56;49.70;;;16.85;;
24517;SDS011;12678;51.336;12.406;2024-01-06T13:53:23;48.88;;;15.98;;
24517;SDS011;12678;51.336;12.406;2024-01-06T13:55:49;49.38;;;16.67;;
24517;SDS011;12678;51.336;12.406;2024-01-06T13:58:15;39.28;;;14.93;;
24517;SDS011;12678;51.336;12.406;2024-01-06T14:00:40;43.60;;;15.20;;
24517;SDS011;12678;51.336;12.406;2024-01-06T14:03:07;60.22;;;15.23;;
24517;SDS011;12678;51.336;12.406;2024-01-06T14:05:33;44.55;;;17.05;;
24517;SDS011;12678;51.336;12.406;2024-01-06T14:07:58;45.30;;;16.17;;
24517;SDS011;12678;51.336;12.406;2024-01-06T14:10:24;55.78;;;16.75;;
24517;SDS011;12678;51.336;12.406;2024-01-06T14:12:50;52.85;;;16.15;;
24517;SDS011;12678;51.336;12.406;2024-01-06T14:15:15;58.38;;;18.48;;
24517;SDS011;12678;51.336;12.406;2024-01-06T14:17:41;56.63;;;18.00;;
24517;SDS011;12678;51.336;12.406;2024-01-06T14:20:08;59.50;;;16.90;;